Portage la Prairie, Canada
Current Conditions -  °F | °C
As of 11:54 AM on Sunday 21 Dec 2014 (Local Time) from CYWG Reporting Station
Haze Haze  
Wind Chill: -8°   Ceiling: 300
Heat Index: -1°   Visibility: 0.75mi
Dew Point: -2°   Wind: 18mph
Humidity: 93%   Direction: 180°S
Pressure: 29.62"   Gusts: 24mph
Location:  49.97°N, 98.29°W
Report Text: CYWG 211754Z 18016G21KT 3/4SM R13/2600V4000FT/U R36/3000FT/U BR OVC003 M01/M02 A2962 RMK ST8 SLP045
Loading
Personal Weather Stations






























Interactive Weather Map New forecast layout! Learn more

10-Day Weather Forecast

Advertisements
Track Severe Weather on mobile